createdAt,value
2018-05-08T00:00:20.595Z,52.81
2018-05-08T00:02:31.686Z,52.86
2018-05-08T00:04:42.819Z,52.45
2018-05-08T00:06:53.935Z,52.50
2018-05-08T00:09:05.050Z,52.44
2018-05-08T00:11:16.118Z,52.14
2018-05-08T00:13:27.278Z,52.08
2018-05-08T00:15:38.401Z,52.25
2018-05-08T00:17:49.674Z,52.33
2018-05-08T00:20:00.859Z,52.98
2018-05-08T00:22:11.909Z,52.45
2018-05-08T00:24:23.110Z,52.56
2018-05-08T00:26:34.226Z,53.05
2018-05-08T00:28:45.356Z,52.73
2018-05-08T00:30:56.422Z,52.82
2018-05-08T00:33:07.482Z,52.86
2018-05-08T00:35:18.605Z,52.72
2018-05-08T00:37:29.663Z,52.78
2018-05-08T00:39:40.782Z,52.73
2018-05-08T00:41:51.844Z,53.06
2018-05-08T00:44:02.924Z,53.01
2018-05-08T00:46:14.009Z,53.45
2018-05-08T00:48:25.058Z,53.26
2018-05-08T00:50:36.137Z,53.29
2018-05-08T00:52:47.199Z,53.15
2018-05-08T00:55:05.347Z,53.18
2018-05-08T00:57:16.426Z,53.47
2018-05-08T00:59:27.484Z,53.71
2018-05-08T01:01:38.574Z,53.94
2018-05-08T01:03:49.677Z,53.84
2018-05-08T01:06:00.838Z,54.16
2018-05-08T01:08:11.962Z,53.72
2018-05-08T01:10:23.098Z,53.75
2018-05-08T01:12:34.179Z,53.83
2018-05-08T01:14:45.349Z,53.45
2018-05-08T01:16:56.412Z,53.41
2018-05-08T01:19:07.455Z,53.47
2018-05-08T01:21:18.533Z,53.19
2018-05-08T01:23:29.665Z,52.91
2018-05-08T01:25:40.775Z,53.00
2018-05-08T01:27:51.846Z,53.06
2018-05-08T01:30:02.897Z,52.91
2018-05-08T01:32:13.947Z,53.09
2018-05-08T01:34:25.069Z,52.66
2018-05-08T01:36:36.137Z,52.67
2018-05-08T01:38:47.326Z,52.14
2018-05-08T01:40:58.375Z,53.00
2018-05-08T01:43:09.551Z,53.03
2018-05-08T01:45:20.645Z,53.17
2018-05-08T01:47:31.710Z,53.51
2018-05-08T01:49:42.801Z,53.10
2018-05-08T01:51:53.877Z,53.38
2018-05-08T01:54:04.957Z,53.49
2018-05-08T01:56:16.041Z,53.77
2018-05-08T01:58:27.215Z,53.98
2018-05-08T02:00:38.362Z,54.36
2018-05-08T02:02:49.575Z,54.38
2018-05-08T02:05:00.623Z,54.33
2018-05-08T02:07:11.679Z,54.31
2018-05-08T02:09:22.821Z,54.50
2018-05-08T02:11:33.911Z,54.96
2018-05-08T02:13:45.014Z,54.92
2018-05-08T02:15:56.087Z,54.55
2018-05-08T02:18:07.535Z,54.70
2018-05-08T02:20:18.580Z,54.83
2018-05-08T02:22:29.674Z,54.66
2018-05-08T02:24:40.809Z,54.80
2018-05-08T02:26:51.849Z,54.82
2018-05-08T02:29:02.929Z,54.96
2018-05-08T02:31:14.010Z,55.38
2018-05-08T02:33:25.126Z,55.18
2018-05-08T02:35:36.206Z,55.26
2018-05-08T02:37:47.366Z,55.06
2018-05-08T02:39:58.468Z,54.80
2018-05-08T02:42:09.578Z,54.76
2018-05-08T02:44:20.693Z,54.91
2018-05-08T02:46:31.778Z,54.62
2018-05-08T02:48:42.842Z,54.77
2018-05-08T02:50:53.935Z,54.90
2018-05-08T02:53:05.088Z,55.08
2018-05-08T02:55:16.357Z,55.01
2018-05-08T02:57:27.456Z,54.75
2018-05-08T02:59:38.508Z,54.55
2018-05-08T03:01:49.805Z,54.17
2018-05-08T03:04:00.843Z,54.25
2018-05-08T03:06:11.915Z,53.96
2018-05-08T03:08:23.078Z,53.66
2018-05-08T03:10:34.181Z,53.81
2018-05-08T03:12:45.291Z,53.77
2018-05-08T03:14:56.366Z,53.78
2018-05-08T03:17:07.494Z,53.89
2018-05-08T03:19:18.537Z,53.66
2018-05-08T03:21:29.871Z,53.51
2018-05-08T03:23:40.922Z,53.83
2018-05-08T03:25:51.986Z,53.74
2018-05-08T03:28:03.057Z,53.93
2018-05-08T03:30:14.115Z,53.98
2018-05-08T03:32:25.286Z,54.04
2018-05-08T03:34:36.398Z,54.13
2018-05-08T03:36:47.496Z,54.04
2018-05-08T03:38:58.577Z,53.72
2018-05-08T03:41:09.646Z,54.12
2018-05-08T03:43:20.728Z,54.75
2018-05-08T03:45:31.869Z,54.54
2018-05-08T03:47:42.949Z,54.69
2018-05-08T03:49:54.213Z,54.91
2018-05-08T03:52:05.401Z,54.91
2018-05-08T03:54:16.510Z,54.92
2018-05-08T03:56:27.637Z,55.00
2018-05-08T03:58:38.735Z,54.98
2018-05-08T04:01:01.880Z,54.75
2018-05-08T04:03:25.219Z,55.34
2018-05-08T04:05:48.575Z,55.25
2018-05-08T04:08:11.954Z,55.61
2018-05-08T04:10:23.909Z,56.66
2018-05-08T04:12:35.022Z,55.78
2018-05-08T04:14:46.110Z,55.61
2018-05-08T04:16:57.189Z,55.67
2018-05-08T04:19:08.286Z,56.15
2018-05-08T04:21:19.347Z,56.33
2018-05-08T04:23:30.435Z,56.38
2018-05-08T04:25:41.541Z,56.34
2018-05-08T04:27:52.637Z,56.01
2018-05-08T04:30:03.797Z,55.74
2018-05-08T04:32:14.920Z,55.44
2018-05-08T04:34:26.057Z,55.28
2018-05-08T04:36:37.177Z,55.47
2018-05-08T04:38:48.224Z,55.09
2018-05-08T04:40:59.329Z,54.78
2018-05-08T04:43:10.416Z,54.97
2018-05-08T04:45:21.522Z,54.39
2018-05-08T04:47:32.600Z,54.27
2018-05-08T04:49:43.802Z,53.60
2018-05-08T04:51:55.118Z,53.63
2018-05-08T04:54:06.182Z,53.04
2018-05-08T04:56:17.229Z,53.00
2018-05-08T04:58:28.306Z,53.21
2018-05-08T05:00:39.373Z,53.34
2018-05-08T05:02:50.422Z,53.07
2018-05-08T05:05:01.554Z,53.32
2018-05-08T05:07:12.641Z,53.08
2018-05-08T05:09:23.922Z,54.14
2018-05-08T05:11:35.070Z,51.71
2018-05-08T05:13:46.219Z,51.73
2018-05-08T05:15:57.435Z,51.77
2018-05-08T05:18:08.666Z,51.40
2018-05-08T05:20:19.805Z,50.91
2018-05-08T05:22:30.947Z,50.63
2018-05-08T05:24:42.112Z,50.73
2018-05-08T05:26:53.267Z,50.00
2018-05-08T05:29:04.432Z,49.87
2018-05-08T05:31:15.581Z,49.89
2018-05-08T05:33:26.693Z,48.69
2018-05-08T05:35:37.931Z,48.72
2018-05-08T05:37:49.072Z,48.44
2018-05-08T05:40:00.336Z,48.62
2018-05-08T05:42:11.442Z,48.17
2018-05-08T05:44:22.580Z,47.79
2018-05-08T05:46:33.756Z,47.63
2018-05-08T05:48:44.863Z,46.89
2018-05-08T05:50:55.962Z,45.97
2018-05-08T05:53:07.090Z,44.86
2018-05-08T05:55:18.210Z,43.68
2018-05-08T05:57:29.442Z,43.67
2018-05-08T05:59:40.639Z,43.27
2018-05-08T06:01:51.752Z,42.74
2018-05-08T06:04:02.926Z,42.61
2018-05-08T06:06:14.005Z,42.13
2018-05-08T06:08:25.102Z,40.07
2018-05-08T06:10:36.207Z,40.12
2018-05-08T06:12:48.655Z,39.53
2018-05-08T06:14:59.754Z,38.21
2018-05-08T06:17:10.845Z,37.82
2018-05-08T06:19:22.666Z,38.06
2018-05-08T06:21:33.724Z,37.60
2018-05-08T06:23:44.800Z,37.21
2018-05-08T06:25:55.854Z,36.91
2018-05-08T06:28:06.970Z,37.27
2018-05-08T06:30:18.153Z,37.28
2018-05-08T06:32:29.252Z,36.24
2018-05-08T06:34:40.474Z,35.53
2018-05-08T06:36:51.562Z,35.86
2018-05-08T06:39:02.646Z,34.52
2018-05-08T06:41:13.718Z,33.48
2018-05-08T06:43:25.016Z,33.67
2018-05-08T06:45:36.061Z,33.53
2018-05-08T06:47:47.170Z,31.75
2018-05-08T06:49:58.291Z,31.58
2018-05-08T06:52:09.367Z,31.43
2018-05-08T06:54:20.576Z,30.66
2018-05-08T06:56:31.633Z,30.15
2018-05-08T06:58:42.787Z,31.04
2018-05-08T07:00:53.906Z,30.18
2018-05-08T07:03:04.970Z,29.33
2018-05-08T07:05:16.072Z,29.14
2018-05-08T07:07:27.162Z,29.55
2018-05-08T07:09:39.068Z,29.89
2018-05-08T07:11:50.139Z,29.18
2018-05-08T07:14:01.222Z,29.15
2018-05-08T07:16:12.616Z,28.31
2018-05-08T07:18:23.468Z,28.40
2018-05-08T07:20:34.683Z,27.90
2018-05-08T07:22:45.808Z,27.73
2018-05-08T07:24:56.874Z,27.92
2018-05-08T07:27:07.954Z,27.86
2018-05-08T07:29:19.058Z,26.91
2018-05-08T07:31:30.172Z,27.36
2018-05-08T07:33:41.359Z,26.73
2018-05-08T07:35:52.503Z,27.04
2018-05-08T07:38:03.537Z,26.63
2018-05-08T07:40:14.954Z,27.36
2018-05-08T07:42:26.159Z,26.34
2018-05-08T07:44:37.292Z,26.44
2018-05-08T07:46:48.498Z,27.57
2018-05-08T07:48:59.589Z,26.69
2018-05-08T07:51:10.766Z,26.90
2018-05-08T07:53:21.842Z,27.53
2018-05-08T07:55:32.930Z,26.33
2018-05-08T07:57:44.038Z,26.37
2018-05-08T07:59:55.699Z,26.51
2018-05-08T08:02:06.759Z,26.06
2018-05-08T08:04:17.870Z,26.61
2018-05-08T08:06:28.985Z,26.56
2018-05-08T08:08:40.090Z,25.91
2018-05-08T08:10:52.262Z,25.87
2018-05-08T08:13:03.441Z,25.93
2018-05-08T08:15:14.530Z,25.64
2018-05-08T08:17:25.602Z,26.41
2018-05-08T08:19:36.830Z,27.06
2018-05-08T08:21:47.890Z,25.43
2018-05-08T08:23:58.946Z,25.57
2018-05-08T08:26:10.055Z,26.39
2018-05-08T08:28:21.122Z,24.71
2018-05-08T08:30:32.200Z,24.33
2018-05-08T08:32:43.280Z,25.61
2018-05-08T08:34:54.534Z,26.61
2018-05-08T08:37:05.607Z,24.88
2018-05-08T08:39:16.728Z,26.20
2018-05-08T08:41:27.863Z,25.61
2018-05-08T08:43:38.938Z,25.48
2018-05-08T08:45:49.989Z,25.20
2018-05-08T08:48:01.038Z,24.57
2018-05-08T08:50:12.250Z,24.91
2018-05-08T08:52:23.439Z,24.33
2018-05-08T08:54:34.579Z,25.59
2018-05-08T08:56:45.702Z,23.34
2018-05-08T08:58:57.025Z,23.52
2018-05-08T09:01:08.140Z,24.32
2018-05-08T09:03:19.213Z,25.90
2018-05-08T09:05:30.305Z,24.42
2018-05-08T09:07:41.374Z,24.41
2018-05-08T09:09:52.463Z,24.12
2018-05-08T09:12:03.536Z,24.88
2018-05-08T09:14:14.699Z,24.23
2018-05-08T09:16:25.808Z,24.17
2018-05-08T09:18:36.992Z,23.71
2018-05-08T09:20:48.031Z,24.21
2018-05-08T09:22:59.202Z,23.21
2018-05-08T09:25:10.265Z,23.98
2018-05-08T09:27:21.448Z,24.31
2018-05-08T09:29:32.432Z,23.12
2018-05-08T09:31:43.523Z,22.78
2018-05-08T09:33:54.730Z,22.60
2018-05-08T09:36:05.803Z,23.26
2018-05-08T09:38:17.039Z,25.33
2018-05-08T09:40:28.189Z,23.36
2018-05-08T09:42:39.274Z,23.67
2018-05-08T09:44:51.681Z,24.00
2018-05-08T09:47:02.788Z,24.02
2018-05-08T09:49:13.907Z,24.15
2018-05-08T09:51:24.995Z,23.82
2018-05-08T09:53:36.060Z,24.99
2018-05-08T09:55:47.181Z,25.28
2018-05-08T09:57:58.258Z,24.90
2018-05-08T10:00:09.358Z,23.13
2018-05-08T10:02:20.437Z,23.06
2018-05-08T10:04:31.752Z,22.91
2018-05-08T10:06:42.871Z,23.39
2018-05-08T10:08:54.027Z,23.56
2018-05-08T10:11:05.126Z,23.73
2018-05-08T10:13:16.493Z,22.70
2018-05-08T10:15:27.571Z,22.41
2018-05-08T10:17:38.657Z,21.87
2018-05-08T10:19:49.762Z,22.06
2018-05-08T10:22:00.923Z,21.54
2018-05-08T10:24:12.014Z,21.54
2018-05-08T10:26:23.212Z,22.94
2018-05-08T10:28:34.477Z,22.65
2018-05-08T10:30:45.540Z,22.02
2018-05-08T10:32:56.652Z,22.51
2018-05-08T10:35:07.699Z,21.23
2018-05-08T10:37:18.810Z,21.85
2018-05-08T10:39:29.889Z,22.50
2018-05-08T10:41:41.019Z,21.98
2018-05-08T10:43:52.141Z,22.33
2018-05-08T10:46:03.302Z,21.20
2018-05-08T10:48:14.425Z,21.69
2018-05-08T10:50:25.497Z,23.19
2018-05-08T10:52:36.634Z,21.49
2018-05-08T10:54:47.741Z,21.68
2018-05-08T10:56:58.822Z,21.58
2018-05-08T10:59:09.927Z,21.41
2018-05-08T11:01:21.095Z,21.31
2018-05-08T11:03:32.416Z,21.62
2018-05-08T11:05:43.564Z,22.02
2018-05-08T11:07:54.722Z,21.79
2018-05-08T11:10:05.844Z,22.24
2018-05-08T11:12:16.926Z,22.91
2018-05-08T11:14:28.038Z,21.77
2018-05-08T11:16:39.131Z,22.16
2018-05-08T11:18:50.203Z,22.35
2018-05-08T11:21:01.337Z,21.77
2018-05-08T11:23:12.406Z,23.04
2018-05-08T11:25:23.530Z,22.09
2018-05-08T11:27:34.646Z,22.54
2018-05-08T11:29:45.874Z,22.29
2018-05-08T11:31:56.961Z,22.06
2018-05-08T11:34:08.051Z,21.07
2018-05-08T11:36:19.169Z,21.55
2018-05-08T11:38:30.246Z,22.11
2018-05-08T11:40:41.444Z,21.84
2018-05-08T11:42:52.542Z,22.02
2018-05-08T11:45:03.834Z,22.03
2018-05-08T11:47:15.023Z,22.11
2018-05-08T11:49:26.074Z,22.47
2018-05-08T11:51:37.162Z,21.94
2018-05-08T11:53:48.274Z,23.23
2018-05-08T11:55:59.403Z,22.57
2018-05-08T11:58:10.515Z,21.46
2018-05-08T12:00:21.608Z,24.60
2018-05-08T12:02:32.757Z,22.41
2018-05-08T12:04:43.830Z,23.10
2018-05-08T12:06:54.921Z,21.75
2018-05-08T12:09:06.039Z,21.88
2018-05-08T12:11:17.114Z,22.77
2018-05-08T12:13:28.206Z,22.75
2018-05-08T12:15:39.299Z,23.34
2018-05-08T12:17:50.403Z,23.20
2018-05-08T12:20:01.777Z,22.73
2018-05-08T12:22:12.861Z,24.21
2018-05-08T12:24:24.058Z,23.26
2018-05-08T12:26:35.279Z,23.15
2018-05-08T12:28:46.366Z,23.48
2018-05-08T12:30:57.479Z,23.45
2018-05-08T12:33:08.550Z,22.97
2018-05-08T12:35:19.713Z,23.25
2018-05-08T12:37:30.794Z,24.02
2018-05-08T12:39:41.951Z,22.68
2018-05-08T12:41:53.022Z,24.10
2018-05-08T12:44:04.089Z,22.61
2018-05-08T12:46:15.271Z,22.63
2018-05-08T12:48:26.480Z,22.69
2018-05-08T12:50:37.630Z,22.51
2018-05-08T12:52:48.718Z,23.05
2018-05-08T12:55:02.768Z,21.80
2018-05-08T12:57:13.926Z,23.50
2018-05-08T12:59:25.059Z,23.14
2018-05-08T13:01:36.291Z,22.39
2018-05-08T13:03:47.502Z,23.13
2018-05-08T13:05:58.645Z,22.28
2018-05-08T13:08:09.871Z,22.43
2018-05-08T13:10:20.971Z,22.59
2018-05-08T13:12:32.115Z,22.56
2018-05-08T13:14:43.221Z,22.59
2018-05-08T13:16:55.419Z,23.23
2018-05-08T13:19:06.502Z,23.93
2018-05-08T13:21:17.617Z,22.32
2018-05-08T13:23:28.729Z,22.06
2018-05-08T13:25:39.834Z,22.88
2018-05-08T13:27:50.922Z,22.27
2018-05-08T13:30:02.742Z,22.74
2018-05-08T13:32:13.984Z,22.45
2018-05-08T13:34:25.080Z,22.20
2018-05-08T13:36:36.249Z,22.85
2018-05-08T13:38:47.387Z,22.25
2018-05-08T13:40:58.467Z,22.57
2018-05-08T13:43:09.734Z,21.98
2018-05-08T13:45:20.828Z,22.28
2018-05-08T13:47:32.064Z,21.86
2018-05-08T13:49:43.154Z,21.42
2018-05-08T13:51:54.269Z,21.82
2018-05-08T13:54:05.391Z,22.35
2018-05-08T13:56:16.479Z,22.45
2018-05-08T13:58:27.752Z,23.06
2018-05-08T14:00:38.810Z,23.02
2018-05-08T14:02:49.979Z,21.79
2018-05-08T14:05:01.106Z,22.06
2018-05-08T14:07:12.190Z,22.00
2018-05-08T14:09:23.318Z,21.65
2018-05-08T14:11:34.394Z,23.05
2018-05-08T14:13:47.452Z,22.20
2018-05-08T14:15:58.582Z,22.21
2018-05-08T14:18:09.679Z,22.79
2018-05-08T14:20:20.846Z,21.36
2018-05-08T14:22:32.102Z,22.12
2018-05-08T14:24:43.169Z,22.64
2018-05-08T14:26:54.407Z,23.12
2018-05-08T14:29:05.501Z,22.29
2018-05-08T14:31:16.722Z,22.04
2018-05-08T14:33:27.725Z,22.76
2018-05-08T14:35:38.827Z,21.03
2018-05-08T14:37:50.069Z,21.05
2018-05-08T14:40:01.161Z,21.87
2018-05-08T14:42:12.363Z,21.72
2018-05-08T14:44:23.602Z,22.84
2018-05-08T14:46:34.789Z,21.96
2018-05-08T14:48:46.106Z,21.95
2018-05-08T14:50:57.215Z,22.61
2018-05-08T14:53:08.355Z,22.16
2018-05-08T14:55:19.455Z,23.12
2018-05-08T14:57:30.625Z,21.96
2018-05-08T14:59:41.717Z,21.71
2018-05-08T15:01:52.808Z,20.77
2018-05-08T15:04:04.018Z,21.56
2018-05-08T15:06:15.138Z,21.92
2018-05-08T15:08:27.095Z,21.26
2018-05-08T15:10:38.250Z,21.56
2018-05-08T15:12:49.351Z,21.65
2018-05-08T15:15:00.563Z,22.21
2018-05-08T15:17:11.726Z,21.80
2018-05-08T15:19:22.878Z,21.72
2018-05-08T15:21:34.109Z,23.03
2018-05-08T15:23:45.222Z,21.71
2018-05-08T15:25:56.491Z,21.46
2018-05-08T15:28:07.571Z,22.25
2018-05-08T15:30:18.687Z,21.97
2018-05-08T15:32:29.778Z,21.19
2018-05-08T15:34:40.905Z,21.39
2018-05-08T15:36:52.118Z,21.08
2018-05-08T15:39:03.202Z,21.39
2018-05-08T15:41:14.478Z,21.55
2018-05-08T15:43:25.567Z,21.73
2018-05-08T15:45:36.801Z,21.52
2018-05-08T15:47:47.896Z,22.19
2018-05-08T15:49:58.990Z,22.27
2018-05-08T15:52:10.114Z,22.38
2018-05-08T15:54:21.293Z,21.72
2018-05-08T15:56:32.491Z,22.40
2018-05-08T15:58:43.558Z,21.78
2018-05-08T16:00:54.671Z,21.62
2018-05-08T16:03:05.800Z,22.40
2018-05-08T16:05:16.951Z,22.46
2018-05-08T16:07:28.089Z,22.57
2018-05-08T16:09:39.192Z,22.83
2018-05-08T16:11:50.347Z,22.60
2018-05-08T16:14:01.471Z,22.84
2018-05-08T16:16:12.531Z,22.65
2018-05-08T16:18:23.622Z,22.14
2018-05-08T16:20:34.745Z,22.61
2018-05-08T16:22:45.895Z,22.83
2018-05-08T16:24:57.019Z,22.40
2018-05-08T16:27:08.162Z,22.59
2018-05-08T16:29:19.250Z,21.82
2018-05-08T16:31:30.362Z,22.15
2018-05-08T16:33:41.482Z,22.47
2018-05-08T16:35:52.697Z,22.33
2018-05-08T16:38:03.834Z,22.07
2018-05-08T16:40:15.111Z,22.23
2018-05-08T16:42:26.336Z,21.93
2018-05-08T16:44:37.504Z,22.11
2018-05-08T16:46:48.619Z,21.61
2018-05-08T16:48:59.685Z,21.87
2018-05-08T16:51:10.859Z,21.58
2018-05-08T16:53:21.976Z,21.57
2018-05-08T16:55:33.045Z,21.62
2018-05-08T16:57:44.251Z,21.71
2018-05-08T16:59:55.327Z,21.67
2018-05-08T17:02:09.113Z,21.60
2018-05-08T17:04:20.260Z,21.78
2018-05-08T17:06:31.326Z,21.86
2018-05-08T17:08:42.495Z,21.95
2018-05-08T17:10:53.564Z,21.51
2018-05-08T17:13:04.758Z,21.32
2018-05-08T17:15:15.831Z,21.95
2018-05-08T17:17:27.023Z,21.70
2018-05-08T17:19:38.144Z,21.75
2018-05-08T17:21:49.230Z,21.99
2018-05-08T17:24:00.359Z,21.84
2018-05-08T17:26:11.445Z,22.23
2018-05-08T17:28:22.544Z,22.53
2018-05-08T17:30:33.694Z,22.30
2018-05-08T17:32:44.865Z,22.56
2018-05-08T17:34:55.964Z,22.94
2018-05-08T17:37:07.109Z,23.70
2018-05-08T17:39:18.297Z,23.52
2018-05-08T17:41:29.431Z,23.65
2018-05-08T17:43:40.515Z,23.76
2018-05-08T17:45:52.602Z,23.34
2018-05-08T17:48:03.730Z,23.28
2018-05-08T17:50:14.826Z,23.43
2018-05-08T17:52:25.933Z,23.70
2018-05-08T17:54:37.047Z,23.79
2018-05-08T17:56:48.141Z,23.92
2018-05-08T17:58:59.299Z,23.81
2018-05-08T18:01:10.442Z,23.96
2018-05-08T18:03:21.554Z,23.87
2018-05-08T18:05:32.762Z,23.96
2018-05-08T18:07:43.890Z,24.50
2018-05-08T18:09:55.028Z,24.57
2018-05-08T18:12:06.136Z,24.43
2018-05-08T18:14:17.267Z,24.45
2018-05-08T18:16:28.386Z,24.44
2018-05-08T18:18:39.485Z,24.37
2018-05-08T18:20:50.630Z,24.69
2018-05-08T18:23:01.739Z,24.60
2018-05-08T18:25:12.900Z,24.76
2018-05-08T18:27:23.978Z,24.82
2018-05-08T18:29:35.163Z,25.13
2018-05-08T18:31:46.274Z,25.28
2018-05-08T18:33:57.403Z,25.23
2018-05-08T18:36:08.542Z,25.46
2018-05-08T18:38:19.634Z,26.34
2018-05-08T18:40:30.758Z,26.24
2018-05-08T18:42:41.834Z,26.48
2018-05-08T18:44:52.931Z,26.95
2018-05-08T18:47:04.015Z,26.69
2018-05-08T18:49:15.163Z,27.13
2018-05-08T18:51:26.258Z,27.18
2018-05-08T18:53:37.365Z,27.33
2018-05-08T18:55:48.450Z,27.43
2018-05-08T18:57:59.713Z,28.12
2018-05-08T19:00:16.936Z,28.72
2018-05-08T19:02:28.057Z,29.69
2018-05-08T19:04:39.276Z,31.10
2018-05-08T19:06:50.517Z,31.41
2018-05-08T19:09:01.670Z,31.74
2018-05-08T19:11:18.840Z,32.37
2018-05-08T19:13:30.027Z,32.66
2018-05-08T19:15:47.182Z,33.50
2018-05-08T19:17:58.305Z,34.07
2018-05-08T19:20:09.421Z,34.23
2018-05-08T19:22:20.506Z,34.27
2018-05-08T19:24:33.489Z,34.58
2018-05-08T19:26:44.599Z,35.02
2018-05-08T19:29:01.785Z,35.18
2018-05-08T19:31:12.906Z,35.31
2018-05-08T19:33:24.035Z,35.30
2018-05-08T19:35:41.175Z,35.63
2018-05-08T19:37:58.261Z,35.88
2018-05-08T19:40:09.354Z,36.42
2018-05-08T19:42:20.469Z,36.30
2018-05-08T19:44:31.682Z,36.60
2018-05-08T19:46:42.877Z,36.73
2018-05-08T19:48:53.982Z,36.96
2018-05-08T19:51:05.092Z,37.09
2018-05-08T19:53:16.204Z,37.09
2018-05-08T19:55:27.375Z,37.23
2018-05-08T19:57:38.454Z,37.24
2018-05-08T19:59:49.717Z,37.01
2018-05-08T20:02:00.808Z,37.40
2018-05-08T20:04:11.955Z,37.63
2018-05-08T20:06:23.251Z,37.71
2018-05-08T20:08:34.390Z,38.10
2018-05-08T20:10:45.542Z,37.87
2018-05-08T20:12:56.649Z,37.66
2018-05-08T20:15:07.816Z,38.10
2018-05-08T20:17:18.899Z,38.02
2018-05-08T20:19:29.966Z,38.03
2018-05-08T20:21:41.129Z,38.08
2018-05-08T20:23:52.226Z,38.61
2018-05-08T20:26:03.434Z,38.52
2018-05-08T20:28:14.525Z,38.97
2018-05-08T20:30:25.755Z,38.99
2018-05-08T20:32:36.883Z,38.75
2018-05-08T20:34:48.010Z,39.00
2018-05-08T20:36:59.160Z,38.99
2018-05-08T20:39:10.279Z,38.99
2018-05-08T20:41:21.466Z,38.97
2018-05-08T20:43:32.659Z,38.97
2018-05-08T20:45:43.894Z,39.02
2018-05-08T20:47:55.202Z,39.05
2018-05-08T20:50:06.291Z,39.29
2018-05-08T20:52:17.425Z,39.31
2018-05-08T20:54:28.602Z,39.54
2018-05-08T20:56:39.782Z,39.77
2018-05-08T20:58:50.873Z,39.96
2018-05-08T21:01:02.013Z,39.95
2018-05-08T21:03:13.046Z,40.54
2018-05-08T21:05:24.121Z,40.40
2018-05-08T21:07:35.270Z,40.34
2018-05-08T21:09:46.433Z,40.33
2018-05-08T21:11:57.577Z,40.93
2018-05-08T21:14:08.691Z,41.02
2018-05-08T21:16:19.950Z,41.02
2018-05-08T21:18:31.025Z,41.41
2018-05-08T21:20:42.148Z,41.25
2018-05-08T21:22:53.256Z,41.02
2018-05-08T21:25:04.355Z,41.38
2018-05-08T21:27:15.518Z,41.36
2018-05-08T21:29:32.573Z,41.83
2018-05-08T21:31:43.704Z,41.83
2018-05-08T21:33:54.841Z,41.80
2018-05-08T21:36:06.070Z,42.02
2018-05-08T21:38:17.198Z,42.53
2018-05-08T21:40:28.282Z,42.90
2018-05-08T21:42:39.368Z,43.09
2018-05-08T21:44:50.459Z,43.35
2018-05-08T21:47:01.613Z,43.03
2018-05-08T21:49:12.687Z,43.27
2018-05-08T21:51:23.891Z,43.58
2018-05-08T21:53:35.074Z,43.86
2018-05-08T21:55:46.198Z,43.98
2018-05-08T21:57:57.295Z,44.13
2018-05-08T22:00:11.442Z,44.52
2018-05-08T22:02:22.533Z,44.68
2018-05-08T22:04:33.748Z,44.50
2018-05-08T22:06:44.862Z,43.63
2018-05-08T22:08:56.022Z,43.10
2018-05-08T22:11:07.095Z,42.83
2018-05-08T22:13:18.233Z,42.68
2018-05-08T22:15:29.327Z,42.50
2018-05-08T22:17:40.441Z,42.40
2018-05-08T22:19:51.602Z,43.07
2018-05-08T22:22:02.691Z,43.50
2018-05-08T22:24:13.773Z,43.99
2018-05-08T22:26:24.855Z,44.15
2018-05-08T22:28:36.058Z,44.50
2018-05-08T22:30:47.170Z,45.05
2018-05-08T22:32:58.355Z,45.35
2018-05-08T22:35:09.468Z,45.66
2018-05-08T22:37:20.561Z,45.51
2018-05-08T22:39:31.680Z,45.55
2018-05-08T22:41:42.769Z,45.30
2018-05-08T22:43:53.914Z,45.03
2018-05-08T22:46:05.012Z,45.10
2018-05-08T22:48:16.183Z,45.43
2018-05-08T22:50:27.270Z,45.82
2018-05-08T22:52:38.351Z,45.45
2018-05-08T22:54:49.466Z,45.70
2018-05-08T22:57:00.559Z,45.50
2018-05-08T22:59:11.671Z,45.73
2018-05-08T23:01:22.733Z,46.04
2018-05-08T23:03:33.866Z,45.74
2018-05-08T23:05:45.185Z,46.18
2018-05-08T23:07:56.313Z,46.29
2018-05-08T23:10:07.387Z,46.56
2018-05-08T23:12:18.452Z,46.68
2018-05-08T23:14:29.650Z,46.84
2018-05-08T23:16:40.744Z,47.05
2018-05-08T23:18:52.010Z,46.79
2018-05-08T23:21:03.072Z,46.99
2018-05-08T23:23:14.181Z,46.75
2018-05-08T23:25:25.222Z,46.78
2018-05-08T23:27:36.325Z,46.84
2018-05-08T23:29:47.394Z,46.35
2018-05-08T23:31:58.454Z,46.12
2018-05-08T23:34:09.522Z,45.60
2018-05-08T23:36:20.581Z,45.10
2018-05-08T23:38:31.671Z,44.39
2018-05-08T23:40:42.766Z,43.97
2018-05-08T23:42:53.909Z,43.57
2018-05-08T23:45:04.995Z,43.12
2018-05-08T23:47:16.101Z,42.85
2018-05-08T23:49:27.187Z,42.74
2018-05-08T23:51:38.306Z,42.55
2018-05-08T23:53:49.385Z,42.37
2018-05-08T23:56:00.483Z,42.21
2018-05-08T23:58:11.652Z,41.89
